createdAt,value
2023-08-15T00:00:24.620Z,89.99
2023-08-15T00:02:51.642Z,89.99
2023-08-15T00:05:18.613Z,90.00
2023-08-15T00:08:03.810Z,90.10
2023-08-15T00:10:30.696Z,90.44
2023-08-15T00:12:58.548Z,90.95
2023-08-15T00:15:25.691Z,90.91
2023-08-15T00:17:52.538Z,90.82
2023-08-15T00:20:19.549Z,90.83
2023-08-15T00:22:46.401Z,90.83
2023-08-15T00:25:13.407Z,90.59
2023-08-15T00:27:40.536Z,90.49
2023-08-15T00:30:08.054Z,89.99
2023-08-15T00:32:37.203Z,90.64
2023-08-15T00:35:05.283Z,90.36
2023-08-15T00:37:35.442Z,91.06
2023-08-15T00:40:02.509Z,91.43
2023-08-15T00:42:30.191Z,91.57
2023-08-15T00:44:58.816Z,91.48
2023-08-15T00:47:26.732Z,91.80
2023-08-15T00:49:55.069Z,91.87
2023-08-15T00:52:22.068Z,91.24
2023-08-15T00:54:51.161Z,91.27
2023-08-15T00:57:18.996Z,91.83
2023-08-15T00:59:46.568Z,92.25
2023-08-15T01:02:13.784Z,92.55
2023-08-15T01:04:42.890Z,92.59
2023-08-15T01:07:10.907Z,92.90
2023-08-15T01:09:38.475Z,93.00
2023-08-15T01:12:43.645Z,93.00
2023-08-15T01:15:16.787Z,92.73
2023-08-15T01:18:02.723Z,93.14
2023-08-15T01:20:34.302Z,92.90
2023-08-15T01:23:03.317Z,92.62
2023-08-15T01:25:33.367Z,92.26
2023-08-15T01:28:01.204Z,92.28
2023-08-15T01:30:28.700Z,92.06
2023-08-15T01:33:35.617Z,92.31
2023-08-15T01:36:17.626Z,92.35
2023-08-15T01:38:49.215Z,92.49
2023-08-15T01:41:20.588Z,92.39
2023-08-15T01:43:48.990Z,92.24
2023-08-15T01:46:16.155Z,92.04
2023-08-15T01:48:43.747Z,92.00
2023-08-15T01:51:11.816Z,91.99
2023-08-15T01:53:39.772Z,92.41
2023-08-15T01:56:07.233Z,92.67
2023-08-15T01:58:34.232Z,92.43
2023-08-15T02:01:04.038Z,92.70
2023-08-15T02:03:31.655Z,92.57
2023-08-15T02:05:58.630Z,92.48
2023-08-15T02:08:25.697Z,92.43
2023-08-15T02:10:53.439Z,92.41
2023-08-15T02:13:20.714Z,92.60
2023-08-15T02:15:47.704Z,92.87
2023-08-15T02:18:14.754Z,93.06
2023-08-15T02:20:41.625Z,93.26
2023-08-15T02:23:08.897Z,93.00
2023-08-15T02:25:36.093Z,92.59
2023-08-15T02:28:03.163Z,92.46
2023-08-15T02:30:30.982Z,92.49
2023-08-15T02:32:57.935Z,92.95
2023-08-15T02:35:24.909Z,93.52
2023-08-15T02:37:52.060Z,93.18
2023-08-15T02:40:18.928Z,93.57
2023-08-15T02:42:45.880Z,93.48
2023-08-15T02:45:12.680Z,93.59
2023-08-15T02:47:39.642Z,93.87
2023-08-15T02:50:07.775Z,93.97
2023-08-15T02:52:34.976Z,93.85
2023-08-15T02:55:01.789Z,93.96
2023-08-15T02:57:28.914Z,94.01
2023-08-15T02:59:55.958Z,94.50
2023-08-15T03:02:23.734Z,94.61
2023-08-15T03:04:50.679Z,95.42
2023-08-15T03:07:17.599Z,95.87
2023-08-15T03:09:44.345Z,96.12
2023-08-15T03:12:11.339Z,96.46
2023-08-15T03:14:38.277Z,97.67
2023-08-15T03:17:05.472Z,99.29
2023-08-15T03:19:32.310Z,99.81
2023-08-15T03:21:59.554Z,99.69
2023-08-15T03:24:29.422Z,100.00
2023-08-15T03:26:57.122Z,100.00
2023-08-15T03:29:24.076Z,100.00
2023-08-15T03:31:51.167Z,100.00
2023-08-15T03:34:18.023Z,100.00
2023-08-15T03:36:47.077Z,100.00
2023-08-15T03:39:13.840Z,98.24
2023-08-15T03:41:40.699Z,96.09
2023-08-15T03:44:07.570Z,94.59
2023-08-15T03:46:34.521Z,93.21
2023-08-15T03:49:01.458Z,91.72
2023-08-15T03:51:45.728Z,88.85
2023-08-15T03:54:14.806Z,84.25
2023-08-15T03:56:41.870Z,80.71
2023-08-15T03:59:09.463Z,76.74
2023-08-15T04:01:36.378Z,73.95
2023-08-15T04:04:04.487Z,70.69
2023-08-15T04:06:32.070Z,67.79
2023-08-15T04:08:59.031Z,66.75
2023-08-15T04:11:26.191Z,63.93
2023-08-15T04:13:53.185Z,61.25
2023-08-15T04:16:20.084Z,59.39
2023-08-15T04:18:47.063Z,57.75
2023-08-15T04:21:13.896Z,55.48
2023-08-15T04:23:40.868Z,54.48
2023-08-15T04:26:07.847Z,52.42
2023-08-15T04:28:35.174Z,49.91
2023-08-15T04:31:02.217Z,47.51
2023-08-15T04:33:29.181Z,47.13
2023-08-15T04:35:56.480Z,45.72
2023-08-15T04:38:23.401Z,44.51
2023-08-15T04:40:50.253Z,43.35
2023-08-15T04:43:17.142Z,42.24
2023-08-15T04:45:46.932Z,40.97
2023-08-15T04:48:14.668Z,40.23
2023-08-15T04:50:42.181Z,39.37
2023-08-15T04:53:09.280Z,38.46
2023-08-15T04:55:36.326Z,37.57
2023-08-15T04:58:03.553Z,36.41
2023-08-15T05:00:33.962Z,36.03
2023-08-15T05:03:02.513Z,35.77
2023-08-15T05:05:29.411Z,34.69
2023-08-15T05:07:56.356Z,34.45
2023-08-15T05:10:23.551Z,33.41
2023-08-15T05:12:50.624Z,33.71
2023-08-15T05:15:17.942Z,32.81
2023-08-15T05:17:45.727Z,32.79
2023-08-15T05:20:13.621Z,32.48
2023-08-15T05:22:40.848Z,32.40
2023-08-15T05:25:08.656Z,31.59
2023-08-15T05:27:41.819Z,31.11
2023-08-15T05:30:09.943Z,30.39
2023-08-15T05:32:36.968Z,30.21
2023-08-15T05:35:04.155Z,29.99
2023-08-15T05:37:31.055Z,30.14
2023-08-15T05:39:58.626Z,29.81
2023-08-15T05:42:25.512Z,28.98
2023-08-15T05:44:52.735Z,28.73
2023-08-15T05:47:22.065Z,27.79
2023-08-15T05:49:49.398Z,27.04
2023-08-15T05:52:16.332Z,27.40
2023-08-15T05:54:43.662Z,27.17
2023-08-15T05:57:10.477Z,26.18
2023-08-15T05:59:37.404Z,25.24
2023-08-15T06:02:04.240Z,25.32
2023-08-15T06:04:31.544Z,24.53
2023-08-15T06:06:58.368Z,24.31
2023-08-15T06:09:25.275Z,23.38
2023-08-15T06:11:52.149Z,23.43
2023-08-15T06:14:22.213Z,23.77
2023-08-15T06:16:49.953Z,24.07
2023-08-15T06:19:17.167Z,25.52
2023-08-15T06:21:44.231Z,26.77
2023-08-15T06:24:14.873Z,27.46
2023-08-15T06:26:41.692Z,26.46
2023-08-15T06:29:09.457Z,25.87
2023-08-15T06:31:37.223Z,25.32
2023-08-15T06:34:04.776Z,24.35
2023-08-15T06:36:32.922Z,25.16
2023-08-15T06:39:00.018Z,23.78
2023-08-15T06:41:27.094Z,23.72
2023-08-15T06:43:56.008Z,23.74
2023-08-15T06:46:23.556Z,22.70
2023-08-15T06:48:50.652Z,22.10
2023-08-15T06:51:17.536Z,21.78
2023-08-15T06:53:47.729Z,21.16
2023-08-15T06:56:14.704Z,20.84
2023-08-15T06:58:41.639Z,20.02
2023-08-15T07:01:08.658Z,19.21
2023-08-15T07:03:35.669Z,19.01
2023-08-15T07:06:02.874Z,18.21
2023-08-15T07:08:30.075Z,18.32
2023-08-15T07:10:58.126Z,17.94
2023-08-15T07:13:25.219Z,17.76
2023-08-15T07:15:57.408Z,17.05
2023-08-15T07:18:25.661Z,16.84
2023-08-15T07:20:53.130Z,16.67
2023-08-15T07:23:21.866Z,15.82
2023-08-15T07:25:49.227Z,16.32
2023-08-15T07:28:16.762Z,16.55
2023-08-15T07:30:47.036Z,16.19
2023-08-15T07:33:15.422Z,15.57
2023-08-15T07:35:46.048Z,15.43
2023-08-15T07:38:14.609Z,15.41
2023-08-15T07:40:42.786Z,14.64
2023-08-15T07:43:09.787Z,14.73
2023-08-15T07:45:36.811Z,14.73
2023-08-15T07:48:05.278Z,14.14
2023-08-15T07:50:32.642Z,14.53
2023-08-15T07:52:59.858Z,14.83
2023-08-15T07:55:33.963Z,14.49
2023-08-15T07:58:01.384Z,14.68
2023-08-15T08:00:28.754Z,14.57
2023-08-15T08:02:56.167Z,14.78
2023-08-15T08:05:23.795Z,14.34
2023-08-15T08:07:51.541Z,14.79
2023-08-15T08:10:19.053Z,14.36
2023-08-15T08:12:47.349Z,14.26
2023-08-15T08:15:14.734Z,14.11
2023-08-15T08:17:42.128Z,14.21
2023-08-15T08:20:13.719Z,14.24
2023-08-15T08:22:41.527Z,13.92
2023-08-15T08:25:17.524Z,13.89
2023-08-15T08:27:45.877Z,13.11
2023-08-15T08:30:14.891Z,13.56
2023-08-15T08:32:42.161Z,12.92
2023-08-15T08:35:09.931Z,12.77
2023-08-15T08:37:37.060Z,12.42
2023-08-15T08:40:05.968Z,12.48
2023-08-15T08:42:33.472Z,12.69
2023-08-15T08:45:01.546Z,11.85
2023-08-15T08:47:31.772Z,12.01
2023-08-15T08:50:01.336Z,12.30
2023-08-15T08:52:31.277Z,12.47
2023-08-15T08:54:58.595Z,12.56
2023-08-15T08:57:31.891Z,12.70
2023-08-15T09:00:02.128Z,12.53
2023-08-15T09:02:29.513Z,12.23
2023-08-15T09:04:57.079Z,12.17
2023-08-15T09:07:24.365Z,11.60
2023-08-15T09:09:51.627Z,11.69
2023-08-15T09:12:41.498Z,11.67
2023-08-15T09:15:10.440Z,11.54
2023-08-15T09:17:39.622Z,11.44
2023-08-15T09:20:15.465Z,11.63
2023-08-15T09:22:47.067Z,11.32
2023-08-15T09:25:24.282Z,11.26
2023-08-15T09:27:51.269Z,11.44
2023-08-15T09:30:19.106Z,11.73
2023-08-15T09:32:47.722Z,12.26
2023-08-15T09:35:17.194Z,12.84
2023-08-15T09:37:45.877Z,13.68
2023-08-15T09:40:15.850Z,14.11
2023-08-15T09:42:44.422Z,13.80
2023-08-15T09:45:16.295Z,13.65
2023-08-15T09:47:45.426Z,13.09
2023-08-15T09:50:14.867Z,13.34
2023-08-15T09:52:50.847Z,13.04
2023-08-15T09:55:20.447Z,12.38
2023-08-15T09:57:48.066Z,12.26
2023-08-15T10:00:18.668Z,12.22
2023-08-15T10:02:56.842Z,12.39
2023-08-15T10:05:26.708Z,11.94
2023-08-15T10:07:54.508Z,11.24
2023-08-15T10:10:22.663Z,11.50
2023-08-15T10:12:51.890Z,11.13
2023-08-15T10:15:20.240Z,11.01
2023-08-15T10:17:47.625Z,11.16
2023-08-15T10:20:19.424Z,11.12
2023-08-15T10:22:51.861Z,10.64
2023-08-15T10:25:41.221Z,11.30
2023-08-15T10:28:13.487Z,10.60
2023-08-15T10:30:44.122Z,11.08
2023-08-15T10:33:25.218Z,10.67
2023-08-15T10:35:58.367Z,10.48
2023-08-15T10:38:29.292Z,10.04
2023-08-15T10:41:07.969Z,10.29
2023-08-15T10:43:37.265Z,9.56
2023-08-15T10:46:06.480Z,9.59
2023-08-15T10:49:03.455Z,9.96
2023-08-15T10:51:31.550Z,10.19
2023-08-15T10:54:07.766Z,9.95
2023-08-15T10:56:37.559Z,10.03
2023-08-15T10:59:08.430Z,9.89
2023-08-15T11:01:38.069Z,9.62
2023-08-15T11:04:09.778Z,9.85
2023-08-15T11:06:48.039Z,10.24
2023-08-15T11:09:16.144Z,10.39
2023-08-15T11:11:43.501Z,10.67
2023-08-15T11:14:18.227Z,11.17
2023-08-15T11:16:47.195Z,10.62
2023-08-15T11:19:21.264Z,11.21
2023-08-15T11:21:49.544Z,11.20
2023-08-15T11:24:17.561Z,10.90
2023-08-15T11:26:45.774Z,10.76
2023-08-15T11:29:14.468Z,11.17
2023-08-15T11:31:42.865Z,10.86
2023-08-15T11:34:12.892Z,10.53
2023-08-15T11:36:40.042Z,10.60
2023-08-15T11:39:12.029Z,10.89
2023-08-15T11:41:39.398Z,10.90
2023-08-15T11:44:06.555Z,10.89
2023-08-15T11:46:52.948Z,11.20
2023-08-15T11:49:23.257Z,10.91
2023-08-15T11:51:51.036Z,11.07
2023-08-15T11:54:18.440Z,10.95
2023-08-15T11:56:54.409Z,10.04
2023-08-15T11:59:23.740Z,10.47
2023-08-15T12:01:51.176Z,10.08
2023-08-15T12:04:20.538Z,10.71
2023-08-15T12:06:47.844Z,10.30
2023-08-15T12:09:14.979Z,10.70
2023-08-15T12:11:42.840Z,10.59
2023-08-15T12:14:20.539Z,10.59
2023-08-15T12:16:47.610Z,10.69
2023-08-15T12:19:17.097Z,10.30
2023-08-15T12:21:45.309Z,10.50
2023-08-15T12:24:12.469Z,9.97
2023-08-15T12:26:39.665Z,10.39
2023-08-15T12:29:06.762Z,10.60
2023-08-15T12:31:38.014Z,10.98
2023-08-15T12:34:05.152Z,10.63
2023-08-15T12:36:32.247Z,11.45
2023-08-15T12:38:59.185Z,10.98
2023-08-15T12:41:26.348Z,10.99
2023-08-15T12:43:53.757Z,10.95
2023-08-15T12:46:21.125Z,11.06
2023-08-15T12:48:48.190Z,10.75
2023-08-15T12:51:15.863Z,11.17
2023-08-15T12:53:43.284Z,11.18
2023-08-15T12:56:11.050Z,11.25
2023-08-15T12:58:38.645Z,11.49
2023-08-15T13:01:05.749Z,11.39
2023-08-15T13:03:32.788Z,11.35
2023-08-15T13:06:00.404Z,11.90
2023-08-15T13:08:27.532Z,12.00
2023-08-15T13:10:55.401Z,11.89
2023-08-15T13:13:22.420Z,12.16
2023-08-15T13:15:51.631Z,12.26
2023-08-15T13:18:18.698Z,12.45
2023-08-15T13:20:45.940Z,12.73
2023-08-15T13:23:12.856Z,12.52
2023-08-15T13:25:39.944Z,12.22
2023-08-15T13:28:07.172Z,12.81
2023-08-15T13:30:34.533Z,13.04
2023-08-15T13:33:02.197Z,13.18
2023-08-15T13:35:29.173Z,13.20
2023-08-15T13:37:56.112Z,13.25
2023-08-15T13:40:23.153Z,13.30
2023-08-15T13:42:50.098Z,13.40
2023-08-15T13:45:18.562Z,13.74
2023-08-15T13:47:45.586Z,13.85
2023-08-15T13:50:13.031Z,14.40
2023-08-15T13:52:40.070Z,14.53
2023-08-15T13:55:07.705Z,14.63
2023-08-15T13:57:34.604Z,15.47
2023-08-15T14:00:02.582Z,15.50
2023-08-15T14:02:35.211Z,15.59
2023-08-15T14:05:04.213Z,15.50
2023-08-15T14:07:31.235Z,15.70
2023-08-15T14:09:58.299Z,16.03
2023-08-15T14:12:27.355Z,15.73
2023-08-15T14:14:54.333Z,16.03
2023-08-15T14:17:21.247Z,15.81
2023-08-15T14:19:48.271Z,15.84
2023-08-15T14:22:16.271Z,16.15
2023-08-15T14:24:47.990Z,16.78
2023-08-15T14:27:15.277Z,17.13
2023-08-15T14:29:42.825Z,17.40
2023-08-15T14:32:10.161Z,17.14
2023-08-15T14:34:37.249Z,17.95
2023-08-15T14:37:04.189Z,18.18
2023-08-15T14:39:31.132Z,18.26
2023-08-15T14:41:58.018Z,18.53
2023-08-15T14:44:25.003Z,18.82
2023-08-15T14:46:52.169Z,19.56
2023-08-15T14:49:19.227Z,19.54
2023-08-15T14:51:46.571Z,19.62
2023-08-15T14:54:13.899Z,19.51
2023-08-15T14:56:41.149Z,20.43
2023-08-15T14:59:08.639Z,20.58
2023-08-15T15:01:36.210Z,20.73
2023-08-15T15:04:03.316Z,21.60
2023-08-15T15:06:30.387Z,22.18
2023-08-15T15:08:57.469Z,22.35
2023-08-15T15:11:24.685Z,23.18
2023-08-15T15:13:51.681Z,23.38
2023-08-15T15:16:19.122Z,23.81
2023-08-15T15:18:46.107Z,24.09
2023-08-15T15:21:13.009Z,25.31
2023-08-15T15:23:40.137Z,26.24
2023-08-15T15:26:07.175Z,27.75
2023-08-15T15:28:34.739Z,28.19
2023-08-15T15:31:02.226Z,29.23
2023-08-15T15:33:30.668Z,29.84
2023-08-15T15:35:57.760Z,30.02
2023-08-15T15:38:24.760Z,30.69
2023-08-15T15:40:51.873Z,30.87
2023-08-15T15:43:19.011Z,31.75
2023-08-15T15:45:46.432Z,32.11
2023-08-15T15:48:13.486Z,33.20
2023-08-15T15:50:40.723Z,34.31
2023-08-15T15:53:08.075Z,35.32
2023-08-15T15:55:35.414Z,35.58
2023-08-15T15:58:02.865Z,36.31
2023-08-15T16:00:30.058Z,36.59
2023-08-15T16:02:57.220Z,36.42
2023-08-15T16:05:24.702Z,36.53
2023-08-15T16:07:52.052Z,37.59
2023-08-15T16:10:19.446Z,37.99
2023-08-15T16:12:46.536Z,37.93
2023-08-15T16:15:13.834Z,38.16
2023-08-15T16:17:43.846Z,38.88
2023-08-15T16:20:11.911Z,39.49
2023-08-15T16:22:39.433Z,39.68
2023-08-15T16:25:06.920Z,40.33
2023-08-15T16:27:34.011Z,40.78
2023-08-15T16:30:14.917Z,41.21
2023-08-15T16:32:42.764Z,42.35
2023-08-15T16:35:09.905Z,43.09
2023-08-15T16:37:37.029Z,43.26
2023-08-15T16:40:04.193Z,43.44
2023-08-15T16:42:31.175Z,43.55
2023-08-15T16:44:58.148Z,43.62
2023-08-15T16:47:25.301Z,44.09
2023-08-15T16:49:52.537Z,43.71
2023-08-15T16:52:20.044Z,43.99
2023-08-15T16:54:47.879Z,44.44
2023-08-15T16:57:15.044Z,45.57
2023-08-15T16:59:43.273Z,46.41
2023-08-15T17:02:10.697Z,47.82
2023-08-15T17:04:37.777Z,49.66
2023-08-15T17:07:04.842Z,51.42
2023-08-15T17:09:31.876Z,53.01
2023-08-15T17:11:58.773Z,54.29
2023-08-15T17:14:25.716Z,55.07
2023-08-15T17:16:52.654Z,55.99
2023-08-15T17:19:20.397Z,56.75
2023-08-15T17:21:47.428Z,58.19
2023-08-15T17:24:14.614Z,59.58
2023-08-15T17:26:41.701Z,60.46
2023-08-15T17:29:08.631Z,61.51
2023-08-15T17:31:35.473Z,63.24
2023-08-15T17:34:02.400Z,64.86
2023-08-15T17:36:30.289Z,66.07
2023-08-15T17:38:57.179Z,67.46
2023-08-15T17:41:24.186Z,68.09
2023-08-15T17:43:51.129Z,68.57
2023-08-15T17:46:18.913Z,69.84
2023-08-15T17:48:46.105Z,71.46
2023-08-15T17:51:13.030Z,72.25
2023-08-15T17:53:40.314Z,72.82
2023-08-15T17:56:07.294Z,73.26
2023-08-15T17:58:51.519Z,74.16
2023-08-15T18:01:19.229Z,74.05
2023-08-15T18:03:47.511Z,73.76
2023-08-15T18:06:15.688Z,73.77
2023-08-15T18:08:42.757Z,73.32
2023-08-15T18:11:09.839Z,73.38
2023-08-15T18:13:37.820Z,73.49
2023-08-15T18:16:05.239Z,73.78
2023-08-15T18:18:32.172Z,73.24
2023-08-15T18:20:59.338Z,73.34
2023-08-15T18:23:26.186Z,72.74
2023-08-15T18:25:53.293Z,72.57
2023-08-15T18:28:20.291Z,72.54
2023-08-15T18:30:47.306Z,72.12
2023-08-15T18:33:15.410Z,72.45
2023-08-15T18:35:43.157Z,72.56
2023-08-15T18:38:10.148Z,72.72
2023-08-15T18:40:39.365Z,72.83
2023-08-15T18:43:09.148Z,72.77
2023-08-15T18:45:43.519Z,72.86
2023-08-15T18:48:11.928Z,72.97
2023-08-15T18:50:43.794Z,73.84
2023-08-15T18:53:10.837Z,74.73
2023-08-15T18:55:37.950Z,75.27
2023-08-15T18:58:05.517Z,75.71
2023-08-15T19:00:32.413Z,76.86
2023-08-15T19:02:59.547Z,77.24
2023-08-15T19:05:26.894Z,77.85
2023-08-15T19:07:54.218Z,78.16
2023-08-15T19:10:22.202Z,78.92
2023-08-15T19:12:49.221Z,79.53
2023-08-15T19:15:23.117Z,80.36
2023-08-15T19:17:51.132Z,80.77
2023-08-15T19:20:28.613Z,81.11
2023-08-15T19:22:55.700Z,81.77
2023-08-15T19:25:24.687Z,82.09
2023-08-15T19:27:53.450Z,82.73
2023-08-15T19:30:21.393Z,83.33
2023-08-15T19:32:48.802Z,83.59
2023-08-15T19:35:16.967Z,83.50
2023-08-15T19:37:44.488Z,83.72
2023-08-15T19:40:11.747Z,83.96
2023-08-15T19:42:44.325Z,84.12
2023-08-15T19:45:12.582Z,84.04
2023-08-15T19:47:40.273Z,84.85
2023-08-15T19:50:08.799Z,85.19
2023-08-15T19:52:36.301Z,85.31
2023-08-15T19:55:07.005Z,85.87
2023-08-15T19:57:34.140Z,86.14
2023-08-15T20:00:01.281Z,86.39
2023-08-15T20:02:28.331Z,86.63
2023-08-15T20:04:56.625Z,87.56
2023-08-15T20:07:23.772Z,87.95
2023-08-15T20:10:03.959Z,88.73
2023-08-15T20:12:35.710Z,89.21
2023-08-15T20:15:02.848Z,89.47
2023-08-15T20:17:29.870Z,89.71
2023-08-15T20:19:56.904Z,90.00
2023-08-15T20:22:24.067Z,90.26
2023-08-15T20:24:51.321Z,90.36
2023-08-15T20:27:18.364Z,90.32
2023-08-15T20:29:45.693Z,90.49
2023-08-15T20:32:12.891Z,91.54
2023-08-15T20:34:40.369Z,91.20
2023-08-15T20:37:07.854Z,90.90
2023-08-15T20:39:35.152Z,91.03
2023-08-15T20:42:02.102Z,91.32
2023-08-15T20:44:29.082Z,91.19
2023-08-15T20:46:56.418Z,91.08
2023-08-15T20:49:23.494Z,91.21
2023-08-15T20:51:50.650Z,91.19
2023-08-15T20:54:17.711Z,91.30
2023-08-15T20:56:44.659Z,91.45
2023-08-15T20:59:11.677Z,91.45
2023-08-15T21:01:38.701Z,91.93
2023-08-15T21:04:06.267Z,92.33
2023-08-15T21:06:33.342Z,92.76
2023-08-15T21:09:00.383Z,92.85
2023-08-15T21:11:27.453Z,92.85
2023-08-15T21:13:56.669Z,92.84
2023-08-15T21:16:23.885Z,92.45
2023-08-15T21:18:51.071Z,92.42
2023-08-15T21:21:18.070Z,92.48
2023-08-15T21:23:45.083Z,92.41
2023-08-15T21:26:11.990Z,92.22
2023-08-15T21:28:38.964Z,92.08
2023-08-15T21:31:06.360Z,92.29
2023-08-15T21:33:33.750Z,92.47
2023-08-15T21:36:01.426Z,92.38
2023-08-15T21:38:28.545Z,93.00
2023-08-15T21:40:55.605Z,93.14
2023-08-15T21:43:22.619Z,93.61
2023-08-15T21:45:49.622Z,94.03
2023-08-15T21:48:16.656Z,94.15
2023-08-15T21:50:43.719Z,94.09
2023-08-15T21:53:10.582Z,94.46
2023-08-15T21:55:37.554Z,94.64
2023-08-15T21:58:04.607Z,94.69
2023-08-15T22:00:31.714Z,94.66
2023-08-15T22:02:58.978Z,94.81
2023-08-15T22:05:26.880Z,95.01
2023-08-15T22:07:54.259Z,94.93
2023-08-15T22:10:23.100Z,95.09
2023-08-15T22:12:51.172Z,95.05
2023-08-15T22:15:19.363Z,94.78
2023-08-15T22:17:52.185Z,95.02
2023-08-15T22:20:21.682Z,94.57
2023-08-15T22:22:48.846Z,94.78
2023-08-15T22:25:18.580Z,94.58
2023-08-15T22:27:46.151Z,94.38
2023-08-15T22:30:13.867Z,94.76
2023-08-15T22:32:40.900Z,94.81
2023-08-15T22:35:08.353Z,94.92
2023-08-15T22:37:35.401Z,94.75
2023-08-15T22:40:04.902Z,94.87
2023-08-15T22:42:32.403Z,94.87
2023-08-15T22:44:59.325Z,95.16
2023-08-15T22:47:26.613Z,95.06
2023-08-15T22:49:53.483Z,95.20
2023-08-15T22:52:20.472Z,95.39
2023-08-15T22:54:47.375Z,95.51
2023-08-15T22:57:14.313Z,95.40
2023-08-15T22:59:41.297Z,95.37
2023-08-15T23:02:08.493Z,95.27
2023-08-15T23:04:35.473Z,95.24
2023-08-15T23:07:02.560Z,95.49
2023-08-15T23:09:29.545Z,95.63
2023-08-15T23:11:56.543Z,95.77
2023-08-15T23:14:23.536Z,95.71
2023-08-15T23:16:50.567Z,95.69
2023-08-15T23:19:17.717Z,95.27
2023-08-15T23:21:44.752Z,95.04
2023-08-15T23:24:11.770Z,95.40
2023-08-15T23:26:38.913Z,95.30
2023-08-15T23:29:05.943Z,95.49
2023-08-15T23:31:34.620Z,95.67
2023-08-15T23:34:05.675Z,95.64
2023-08-15T23:36:33.692Z,95.76
2023-08-15T23:39:00.852Z,95.80
2023-08-15T23:41:28.764Z,96.02
2023-08-15T23:43:55.764Z,95.97
2023-08-15T23:46:24.446Z,96.14
2023-08-15T23:48:52.180Z,96.40
2023-08-15T23:51:19.385Z,96.37
2023-08-15T23:53:48.637Z,96.61
2023-08-15T23:56:16.329Z,96.72
2023-08-15T23:58:43.517Z,96.32
